LHPP/PEV METAR and TAF weather

Enter ICAO airport designator
Station Type Date Time Source
LHPP METAR 2021/01/27 13:45 UTC NOAA

LHPP 271345Z 31010KT 9999 BKN026 01/M01 Q1015


Station Type Date Time Source
LHPP Decoded METAR 2021/01/27 13:45 UTC NOAA

Pecs / Pogany, Hungary (LHPP) 46-06N 018-14E 203M
Jan 27, 2021 - 08:45 AM EST / 2021.01.27 1345 UTC
Wind: from the NW (310 degrees) at 12 MPH (10 KT):0
Visibility: greater than 7 mile(s):0
Sky conditions: mostly cloudy
Temperature: 33 F (1 C)
Windchill: 24 F (-4 C):1
Dew Point: 30 F (-1 C)
Relative Humidity: 86%
Pressure (altimeter): 29.97 in. Hg (1015 hPa)
ob: LHPP 271345Z 31010KT 9999 BKN026 01/M01 Q1015
cycle: 14

Station Type Date Time Source
LHPP TAF 2017/08/21 15:50 UTC NOAA

TAF LHPP 211700Z 2115/2214 CNL

Example: see airport list